レシフェ の空港の天気 - METARとTAF

レシフェ・グアララペス国際空港 ( SBRF / REC ) - ブラジル ペルナンブーコ州レシフェ
飛行場実況気象(Metar)
観測時間05/28 21:00 BRT (05/29 00:00 UTC)
風向・風速南西 3m/s
視程3000m
天気現象弱い雨 もや
全天の4割程度の雲 雲底高度 180m
全天の8割程度の雲 雲底高度 460m
全天を覆う雲 雲底高度 760m
気温22℃
湿度100%
気圧1014hPa
METARSBRF 290000Z 22006KT 190V250 3000 -RA BR SCT006 BKN015 OVC025 22/22 Q1014
過去の天気等 Google飛行場航空写真 Wunderground天気予報

過去48時間のMETAR

飛行場予報(TAF)
発表時間: 5/28 18:00 BRT (5/28 21:00 UTC)
予報対象時間: 28日21時 BRT ~ 29日21時 BRT
風向・風速南 5m/s
視程3000m
天気現象
全天の4割程度の雲 雲底高度 150m
全天の8割程度の雲 雲底高度 300m
28日21時 BRT から 確率 40% で
視程3000m
天気現象雷雨
全天の8割程度の雲 雲底高度 210m
少しの積乱雲 雲底高度 760m
29日10時 BRT ~ 29日12時 BRT に徐々に
風向・風速南南東 5m/s
視程5000m
天気現象
全天の8割程度の雲 雲底高度 370m
全天の8割程度の雲 雲底高度 760m
29日19時 BRT ~ 29日21時 BRT に徐々に
風向・風速南 5m/s
TAF SBRF 282100Z 2900/2924 19010KT 3000 RA SCT005 BKN010 TN24/2908Z TX27/2918Z
PROB40 2900/2902 3000 TSRA BKN007 FEW025CB
BECMG 2913/2915 16010KT 5000 RA BKN012 BKN025
BECMG 2922/2924 19010KT RMK PGU